SWR21A LHBP-LSZH
Flight info
| Callsign | SWR21A |
|---|---|
| Flight time | 1h 20m |
| Altitude | 34000 |
| Route | GILEP DCT ZOLKU DCT SUNIS DCT SETAL DCT ERKIR DCT KPT L856 NEGRA |
| Aircraft | A20N/M-SDE2E3FGHIJ1RWXY/LB1 |
Departure
| Time | 2026-05-04 13:59 |
|---|---|
| Airport | Budapest Liszt Ferenc International Airport (LHBP) |
Arrival
| Time | 2026-05-04 15:19 |
|---|---|
| Airport | Zürich Airport (LSZH) |
| Time | Latitude | Longitude | Altitude | Speed | Heading |
|---|---|---|---|---|---|
| 2026-05-04 13:11 | 47.43451 | 19.26249 | 484 ft | 0 kts | 222° |
| 2026-05-04 13:47 | 47.43461 | 19.26261 | 457 ft | 4 kts | 222° |
| 2026-05-04 13:47 | 47.43477 | 19.26284 | 455 ft | 3 kts | 221° |
| 2026-05-04 13:47 | 47.43498 | 19.26299 | 455 ft | 4 kts | 161° |
| 2026-05-04 13:48 | 47.43518 | 19.26279 | 456 ft | 4 kts | 132° |
| 2026-05-04 13:48 | 47.43535 | 19.26251 | 457 ft | 4 kts | 136° |
| 2026-05-04 13:48 | 47.43556 | 19.26227 | 457 ft | 4 kts | 157° |
| 2026-05-04 13:48 | 47.43582 | 19.26219 | 455 ft | 4 kts | 185° |
| 2026-05-04 13:49 | 47.43607 | 19.26228 | 455 ft | 4 kts | 212° |
| 2026-05-04 13:49 | 47.43619 | 19.26241 | 454 ft | 0 kts | 222° |
| 2026-05-04 13:53 | 47.43612 | 19.26231 | 456 ft | 3 kts | 222° |
| 2026-05-04 13:53 | 47.43581 | 19.26189 | 457 ft | 8 kts | 222° |
| 2026-05-04 13:54 | 47.43567 | 19.26061 | 457 ft | 9 kts | 309° |
| 2026-05-04 13:54 | 47.43626 | 19.26018 | 457 ft | 10 kts | 22° |
| 2026-05-04 13:54 | 47.43779 | 19.25972 | 457 ft | 14 kts | 22° |
| 2026-05-04 13:55 | 47.43855 | 19.26071 | 457 ft | 16 kts | 43° |
| 2026-05-04 13:55 | 47.44020 | 19.26040 | 458 ft | 16 kts | 317° |
| 2026-05-04 13:55 | 47.44102 | 19.25910 | 458 ft | 18 kts | 313° |
| 2026-05-04 13:56 | 47.44194 | 19.25762 | 458 ft | 21 kts | 312° |
| 2026-05-04 13:56 | 47.44298 | 19.25601 | 458 ft | 23 kts | 319° |
| 2026-05-04 13:56 | 47.44498 | 19.25665 | 470 ft | 5 kts | 56° |
| 2026-05-04 13:57 | 47.44502 | 19.25673 | 472 ft | 0 kts | 56° |
| 2026-05-04 13:57 | 47.44509 | 19.25702 | 475 ft | 9 kts | 77° |
| 2026-05-04 13:58 | 47.44159 | 19.26374 | 472 ft | 90 kts | 132° |
| 2026-05-04 13:58 | 47.42871 | 19.28458 | 486 ft | 175 kts | 135° |
| 2026-05-04 13:58 | 47.42119 | 19.29855 | 1029 ft | 168 kts | 127° |
| 2026-05-04 13:59 | 47.41560 | 19.31335 | 1733 ft | 163 kts | 123° |
| 2026-05-04 13:59 | 47.41025 | 19.32782 | 2364 ft | 159 kts | 122° |
| 2026-05-04 13:59 | 47.40045 | 19.35731 | 3444 ft | 169 kts | 121° |
| 2026-05-04 14:00 | 47.39489 | 19.37304 | 4055 ft | 177 kts | 121° |
| 2026-05-04 14:00 | 47.37903 | 19.40425 | 5079 ft | 208 kts | 150° |
| 2026-05-04 14:00 | 47.36490 | 19.41161 | 5466 ft | 228 kts | 178° |
| 2026-05-04 14:01 | 47.34907 | 19.40666 | 6044 ft | 241 kts | 210° |
| 2026-05-04 14:01 | 47.33701 | 19.38965 | 6915 ft | 244 kts | 236° |
| 2026-05-04 14:01 | 47.31901 | 19.34336 | 8215 ft | 274 kts | 240° |
| 2026-05-04 14:02 | 47.30976 | 19.31853 | 9120 ft | 278 kts | 239° |
| 2026-05-04 14:02 | 47.30022 | 19.29351 | 10022 ft | 284 kts | 239° |
| 2026-05-04 14:02 | 47.29016 | 19.26762 | 10553 ft | 301 kts | 238° |
| 2026-05-04 14:02 | 47.27920 | 19.23977 | 10859 ft | 325 kts | 238° |
| 2026-05-04 14:03 | 47.26757 | 19.21036 | 11380 ft | 338 kts | 238° |
| 2026-05-04 14:03 | 47.25570 | 19.18037 | 12210 ft | 342 kts | 238° |
| 2026-05-04 14:03 | 47.24358 | 19.14982 | 13014 ft | 346 kts | 239° |
| 2026-05-04 14:03 | 47.23133 | 19.11894 | 13819 ft | 351 kts | 239° |
| 2026-05-04 14:04 | 47.20826 | 19.05475 | 15231 ft | 360 kts | 253° |
| 2026-05-04 14:04 | 47.20531 | 19.01855 | 15918 ft | 365 kts | 273° |
| 2026-05-04 14:04 | 47.21087 | 18.98208 | 16613 ft | 369 kts | 292° |
| 2026-05-04 14:05 | 47.24042 | 18.91963 | 18011 ft | 376 kts | 309° |
| 2026-05-04 14:05 | 47.25702 | 18.88981 | 18686 ft | 379 kts | 309° |
| 2026-05-04 14:05 | 47.27373 | 18.85949 | 19322 ft | 381 kts | 309° |
| 2026-05-04 14:06 | 47.29022 | 18.82906 | 19928 ft | 384 kts | 308° |
| 2026-05-04 14:06 | 47.30686 | 18.79796 | 20546 ft | 386 kts | 308° |
| 2026-05-04 14:06 | 47.32354 | 18.76658 | 21149 ft | 389 kts | 308° |
| 2026-05-04 14:06 | 47.34025 | 18.73504 | 21736 ft | 392 kts | 308° |
| 2026-05-04 14:07 | 47.35709 | 18.70319 | 22327 ft | 395 kts | 307° |
| 2026-05-04 14:07 | 47.37405 | 18.67107 | 22895 ft | 398 kts | 307° |
| 2026-05-04 14:07 | 47.39086 | 18.63920 | 23471 ft | 401 kts | 307° |
| 2026-05-04 14:07 | 47.40663 | 18.60509 | 23980 ft | 403 kts | 300° |
| 2026-05-04 14:08 | 47.41924 | 18.56815 | 24478 ft | 405 kts | 292° |
| 2026-05-04 14:08 | 47.42863 | 18.52888 | 24987 ft | 406 kts | 287° |
| 2026-05-04 14:08 | 47.43669 | 18.48868 | 25460 ft | 408 kts | 287° |
| 2026-05-04 14:08 | 47.44490 | 18.44845 | 25944 ft | 410 kts | 287° |
| 2026-05-04 14:09 | 47.46144 | 18.36738 | 26866 ft | 414 kts | 287° |
| 2026-05-04 14:09 | 47.46976 | 18.32639 | 27270 ft | 417 kts | 287° |
| 2026-05-04 14:10 | 47.48599 | 18.24368 | 28059 ft | 422 kts | 284° |
| 2026-05-04 14:10 | 47.49057 | 18.21554 | 28322 ft | 423 kts | 284° |
| 2026-05-04 14:10 | 47.49754 | 18.17318 | 28690 ft | 426 kts | 284° |
| 2026-05-04 14:10 | 47.50461 | 18.13045 | 29054 ft | 428 kts | 284° |
| 2026-05-04 14:11 | 47.51168 | 18.08767 | 29391 ft | 430 kts | 284° |
| 2026-05-04 14:11 | 47.52592 | 18.00097 | 30066 ft | 435 kts | 284° |
| 2026-05-04 14:11 | 47.53305 | 17.95737 | 30368 ft | 437 kts | 284° |
| 2026-05-04 14:12 | 47.54020 | 17.91349 | 30673 ft | 439 kts | 284° |
| 2026-05-04 14:12 | 47.54712 | 17.86944 | 30975 ft | 442 kts | 281° |
| 2026-05-04 14:12 | 47.54628 | 17.77857 | 31668 ft | 446 kts | 259° |
| 2026-05-04 14:13 | 47.53691 | 17.73471 | 32069 ft | 447 kts | 249° |
| 2026-05-04 14:13 | 47.52502 | 17.69227 | 32442 ft | 447 kts | 249° |
| 2026-05-04 14:13 | 47.51315 | 17.64969 | 32831 ft | 446 kts | 249° |
| 2026-05-04 14:13 | 47.50137 | 17.60733 | 33206 ft | 445 kts | 249° |
| 2026-05-04 14:14 | 47.48962 | 17.56513 | 33565 ft | 444 kts | 249° |
| 2026-05-04 14:14 | 47.46612 | 17.48098 | 34013 ft | 442 kts | 249° |
| 2026-05-04 14:14 | 47.45436 | 17.43900 | 34017 ft | 441 kts | 249° |
| 2026-05-04 14:15 | 47.40734 | 17.27191 | 34016 ft | 440 kts | 249° |
| 2026-05-04 14:16 | 47.37207 | 17.14735 | 34014 ft | 440 kts | 249° |
| 2026-05-04 14:17 | 47.33658 | 17.02268 | 34009 ft | 439 kts | 249° |
| 2026-05-04 14:18 | 47.30101 | 16.89840 | 34003 ft | 438 kts | 249° |
| 2026-05-04 14:19 | 47.25347 | 16.73321 | 33999 ft | 438 kts | 249° |
| 2026-05-04 14:19 | 47.22960 | 16.65065 | 34000 ft | 438 kts | 249° |
| 2026-05-04 14:20 | 47.20570 | 16.56831 | 33998 ft | 438 kts | 249° |
| 2026-05-04 14:20 | 47.18173 | 16.48601 | 33994 ft | 438 kts | 249° |
| 2026-05-04 14:21 | 47.14988 | 16.36110 | 33996 ft | 435 kts | 260° |
| 2026-05-04 14:21 | 47.14563 | 16.27287 | 33999 ft | 432 kts | 275° |
| 2026-05-04 14:22 | 47.15039 | 16.18448 | 33995 ft | 433 kts | 275° |
| 2026-05-04 14:22 | 47.15483 | 16.09691 | 34001 ft | 433 kts | 275° |
| 2026-05-04 14:23 | 47.16135 | 15.96460 | 34002 ft | 433 kts | 275° |
| 2026-05-04 14:24 | 47.16563 | 15.87609 | 34005 ft | 433 kts | 275° |
| 2026-05-04 14:24 | 47.16984 | 15.78764 | 34001 ft | 433 kts | 275° |
| 2026-05-04 14:25 | 47.17395 | 15.69981 | 34002 ft | 433 kts | 275° |
| 2026-05-04 14:25 | 47.18005 | 15.56689 | 33991 ft | 431 kts | 274° |
| 2026-05-04 14:26 | 47.18397 | 15.47935 | 33990 ft | 431 kts | 274° |
| 2026-05-04 14:26 | 47.18786 | 15.39145 | 33990 ft | 431 kts | 274° |
| 2026-05-04 14:27 | 47.19167 | 15.30351 | 33991 ft | 430 kts | 274° |
| 2026-05-04 14:27 | 47.19539 | 15.21587 | 33979 ft | 428 kts | 274° |
| 2026-05-04 14:28 | 47.19906 | 15.12815 | 33996 ft | 430 kts | 274° |
| 2026-05-04 14:28 | 47.20264 | 15.04099 | 33992 ft | 429 kts | 273° |
| 2026-05-04 14:29 | 47.20959 | 14.86669 | 33991 ft | 429 kts | 273° |
| 2026-05-04 14:30 | 47.21298 | 14.77905 | 33992 ft | 429 kts | 273° |
| 2026-05-04 14:31 | 47.21793 | 14.64801 | 33995 ft | 428 kts | 273° |
| 2026-05-04 14:32 | 47.22430 | 14.47308 | 33996 ft | 427 kts | 273° |
| 2026-05-04 14:32 | 47.22738 | 14.38596 | 34002 ft | 426 kts | 272° |
| 2026-05-04 14:33 | 47.23038 | 14.29919 | 33994 ft | 426 kts | 272° |
| 2026-05-04 14:33 | 47.23840 | 14.21226 | 33991 ft | 428 kts | 281° |
| 2026-05-04 14:34 | 47.25099 | 14.12691 | 33993 ft | 428 kts | 281° |
| 2026-05-04 14:34 | 47.26347 | 14.04111 | 33983 ft | 428 kts | 281° |
| 2026-05-04 14:35 | 47.27588 | 13.95514 | 33987 ft | 429 kts | 281° |
| 2026-05-04 14:35 | 47.28819 | 13.86922 | 33978 ft | 429 kts | 281° |
| 2026-05-04 14:36 | 47.30047 | 13.78302 | 33978 ft | 430 kts | 281° |
| 2026-05-04 14:36 | 47.31265 | 13.69710 | 33979 ft | 432 kts | 281° |
| 2026-05-04 14:37 | 47.32487 | 13.61044 | 33974 ft | 432 kts | 280° |
| 2026-05-04 14:37 | 47.33700 | 13.52388 | 33968 ft | 431 kts | 280° |
| 2026-05-04 14:38 | 47.34907 | 13.43723 | 33958 ft | 431 kts | 280° |
| 2026-05-04 14:38 | 47.36108 | 13.35045 | 33949 ft | 431 kts | 280° |
| 2026-05-04 14:39 | 47.37294 | 13.26426 | 33938 ft | 431 kts | 280° |
| 2026-05-04 14:39 | 47.38480 | 13.17760 | 33958 ft | 433 kts | 280° |
| 2026-05-04 14:40 | 47.40261 | 13.04643 | 33954 ft | 434 kts | 280° |
| 2026-05-04 14:40 | 47.41442 | 12.95886 | 33944 ft | 435 kts | 279° |
| 2026-05-04 14:41 | 47.42616 | 12.87123 | 33948 ft | 434 kts | 279° |
| 2026-05-04 14:42 | 47.44933 | 12.69658 | 33939 ft | 435 kts | 279° |
| 2026-05-04 14:42 | 47.46086 | 12.60895 | 33935 ft | 434 kts | 279° |
| 2026-05-04 14:43 | 47.47230 | 12.52134 | 33929 ft | 434 kts | 279° |
| 2026-05-04 14:43 | 47.48369 | 12.43363 | 33931 ft | 434 kts | 279° |
| 2026-05-04 14:44 | 47.49502 | 12.34591 | 33921 ft | 434 kts | 279° |
| 2026-05-04 14:44 | 47.50627 | 12.25818 | 33916 ft | 434 kts | 279° |
| 2026-05-04 14:45 | 47.51746 | 12.17035 | 33902 ft | 434 kts | 279° |
| 2026-05-04 14:45 | 47.52855 | 12.08282 | 33923 ft | 436 kts | 278° |
| 2026-05-04 14:46 | 47.53969 | 11.99454 | 33926 ft | 436 kts | 278° |
| 2026-05-04 14:46 | 47.55131 | 11.90629 | 33921 ft | 437 kts | 279° |
| 2026-05-04 14:47 | 47.56303 | 11.81811 | 33929 ft | 437 kts | 279° |
| 2026-05-04 14:47 | 47.57464 | 11.72972 | 33927 ft | 437 kts | 278° |
| 2026-05-04 14:48 | 47.58616 | 11.64124 | 33922 ft | 437 kts | 278° |
| 2026-05-04 14:48 | 47.59758 | 11.55286 | 33943 ft | 437 kts | 278° |
| 2026-05-04 14:49 | 47.60894 | 11.46436 | 33934 ft | 437 kts | 278° |
| 2026-05-04 14:49 | 47.62024 | 11.37578 | 33940 ft | 437 kts | 278° |
| 2026-05-04 14:50 | 47.63139 | 11.28782 | 33932 ft | 436 kts | 278° |
| 2026-05-04 14:50 | 47.64260 | 11.19884 | 33952 ft | 436 kts | 278° |
| 2026-05-04 14:51 | 47.65359 | 11.11104 | 33951 ft | 436 kts | 278° |
| 2026-05-04 14:51 | 47.66460 | 11.02238 | 33960 ft | 436 kts | 278° |
| 2026-05-04 14:52 | 47.67554 | 10.93384 | 33963 ft | 436 kts | 278° |
| 2026-05-04 14:52 | 47.68640 | 10.84529 | 33963 ft | 436 kts | 278° |
| 2026-05-04 14:53 | 47.69538 | 10.77162 | 33967 ft | 436 kts | 278° |
| 2026-05-04 14:53 | 47.70786 | 10.66856 | 33966 ft | 436 kts | 277° |
| 2026-05-04 14:54 | 47.71680 | 10.59417 | 33967 ft | 436 kts | 277° |
| 2026-05-04 14:54 | 47.72733 | 10.50612 | 33968 ft | 436 kts | 277° |
| 2026-05-04 14:55 | 47.73262 | 10.46157 | 33964 ft | 437 kts | 277° |
| 2026-05-04 14:55 | 47.74147 | 10.38575 | 33961 ft | 437 kts | 275° |
| 2026-05-04 14:56 | 47.74471 | 10.29593 | 33964 ft | 434 kts | 265° |
| 2026-05-04 14:56 | 47.74277 | 10.21909 | 33882 ft | 433 kts | 266° |
| 2026-05-04 14:57 | 47.74178 | 10.17440 | 33382 ft | 433 kts | 266° |
| 2026-05-04 14:57 | 47.74078 | 10.12944 | 32507 ft | 437 kts | 266° |
| 2026-05-04 14:57 | 47.73973 | 10.08425 | 31443 ft | 444 kts | 266° |
| 2026-05-04 14:57 | 47.73861 | 10.03763 | 30336 ft | 452 kts | 266° |
| 2026-05-04 14:58 | 47.73748 | 9.99101 | 29509 ft | 451 kts | 266° |
| 2026-05-04 14:58 | 47.73635 | 9.94480 | 28995 ft | 442 kts | 266° |
| 2026-05-04 14:58 | 47.73524 | 9.89992 | 28565 ft | 432 kts | 265° |
| 2026-05-04 14:58 | 47.73413 | 9.85571 | 28021 ft | 425 kts | 265° |
| 2026-05-04 14:59 | 47.73301 | 9.81187 | 27476 ft | 420 kts | 265° |
| 2026-05-04 14:59 | 47.73188 | 9.76883 | 26923 ft | 414 kts | 265° |
| 2026-05-04 14:59 | 47.72961 | 9.68435 | 25858 ft | 404 kts | 265° |
| 2026-05-04 15:00 | 47.72848 | 9.64295 | 25319 ft | 401 kts | 265° |
| 2026-05-04 15:00 | 47.72732 | 9.60167 | 24802 ft | 397 kts | 265° |
| 2026-05-04 15:00 | 47.72616 | 9.56078 | 24279 ft | 394 kts | 264° |
| 2026-05-04 15:01 | 47.72374 | 9.48004 | 23169 ft | 388 kts | 262° |
| 2026-05-04 15:01 | 47.71885 | 9.44117 | 22689 ft | 378 kts | 250° |
| 2026-05-04 15:01 | 47.70857 | 9.40585 | 22179 ft | 369 kts | 238° |
| 2026-05-04 15:01 | 47.69385 | 9.37518 | 21697 ft | 363 kts | 229° |
| 2026-05-04 15:02 | 47.67782 | 9.34629 | 21210 ft | 358 kts | 229° |
| 2026-05-04 15:02 | 47.66220 | 9.31793 | 20723 ft | 354 kts | 229° |
| 2026-05-04 15:02 | 47.64665 | 9.28964 | 20256 ft | 351 kts | 230° |
| 2026-05-04 15:02 | 47.63133 | 9.26176 | 19782 ft | 347 kts | 230° |
| 2026-05-04 15:03 | 47.61608 | 9.23408 | 19304 ft | 345 kts | 229° |
| 2026-05-04 15:03 | 47.60225 | 9.20528 | 18850 ft | 344 kts | 238° |
| 2026-05-04 15:03 | 47.59214 | 9.17310 | 18352 ft | 345 kts | 249° |
| 2026-05-04 15:03 | 47.58621 | 9.13873 | 17864 ft | 345 kts | 258° |
| 2026-05-04 15:04 | 47.58209 | 9.10385 | 17390 ft | 341 kts | 257° |
| 2026-05-04 15:04 | 47.57836 | 9.06967 | 16921 ft | 339 kts | 263° |
| 2026-05-04 15:04 | 47.57867 | 9.03488 | 16466 ft | 340 kts | 275° |
| 2026-05-04 15:04 | 47.58362 | 9.00208 | 16021 ft | 340 kts | 286° |
| 2026-05-04 15:05 | 47.59200 | 8.97097 | 15565 ft | 340 kts | 290° |
| 2026-05-04 15:05 | 47.60095 | 8.93857 | 15093 ft | 339 kts | 290° |
| 2026-05-04 15:05 | 47.60975 | 8.90635 | 14624 ft | 337 kts | 290° |
| 2026-05-04 15:05 | 47.61866 | 8.87359 | 14146 ft | 337 kts | 290° |
| 2026-05-04 15:06 | 47.62711 | 8.84130 | 13678 ft | 335 kts | 284° |
| 2026-05-04 15:06 | 47.63031 | 8.80757 | 13204 ft | 329 kts | 266° |
| 2026-05-04 15:06 | 47.62635 | 8.77433 | 12743 ft | 324 kts | 249° |
| 2026-05-04 15:07 | 47.60932 | 8.71386 | 11867 ft | 318 kts | 245° |
| 2026-05-04 15:07 | 47.60068 | 8.68332 | 11429 ft | 316 kts | 245° |
| 2026-05-04 15:07 | 47.59258 | 8.65360 | 10982 ft | 316 kts | 251° |
| 2026-05-04 15:07 | 47.58990 | 8.62135 | 10553 ft | 317 kts | 272° |
| 2026-05-04 15:08 | 47.59564 | 8.59009 | 10282 ft | 313 kts | 295° |
| 2026-05-04 15:08 | 47.60831 | 8.56459 | 10131 ft | 305 kts | 315° |
| 2026-05-04 15:08 | 47.62380 | 8.54336 | 9883 ft | 300 kts | 316° |
| 2026-05-04 15:08 | 47.63900 | 8.52273 | 9752 ft | 296 kts | 316° |
| 2026-05-04 15:09 | 47.65431 | 8.50187 | 9545 ft | 301 kts | 316° |
| 2026-05-04 15:09 | 47.66988 | 8.48057 | 9152 ft | 305 kts | 316° |
| 2026-05-04 15:09 | 47.68526 | 8.45950 | 9001 ft | 294 kts | 316° |
| 2026-05-04 15:10 | 47.71361 | 8.42054 | 8704 ft | 261 kts | 316° |
| 2026-05-04 15:10 | 47.72649 | 8.40277 | 8525 ft | 246 kts | 316° |
| 2026-05-04 15:10 | 47.74348 | 8.36196 | 7686 ft | 232 kts | 272° |
| 2026-05-04 15:11 | 47.74026 | 8.33880 | 7096 ft | 230 kts | 239° |
| 2026-05-04 15:11 | 47.73023 | 8.32127 | 6856 ft | 215 kts | 224° |
| 2026-05-04 15:11 | 47.72037 | 8.30594 | 6736 ft | 196 kts | 225° |
| 2026-05-04 15:11 | 47.71150 | 8.29186 | 6650 ft | 175 kts | 226° |
| 2026-05-04 15:12 | 47.70268 | 8.28056 | 6371 ft | 167 kts | 210° |
| 2026-05-04 15:12 | 47.69168 | 8.27456 | 5907 ft | 169 kts | 188° |
| 2026-05-04 15:12 | 47.68047 | 8.27476 | 5744 ft | 153 kts | 169° |
| 2026-05-04 15:12 | 47.67075 | 8.27962 | 5584 ft | 145 kts | 153° |
| 2026-05-04 15:13 | 47.66265 | 8.28815 | 5328 ft | 141 kts | 136° |
| 2026-05-04 15:13 | 47.65542 | 8.29854 | 5077 ft | 146 kts | 136° |
| 2026-05-04 15:13 | 47.64803 | 8.30879 | 4854 ft | 145 kts | 136° |
| 2026-05-04 15:13 | 47.64086 | 8.31885 | 4664 ft | 141 kts | 134° |
| 2026-05-04 15:14 | 47.63382 | 8.32939 | 4597 ft | 145 kts | 135° |
| 2026-05-04 15:14 | 47.62643 | 8.33958 | 4530 ft | 144 kts | 137° |
| 2026-05-04 15:14 | 47.61911 | 8.34952 | 4432 ft | 143 kts | 137° |
| 2026-05-04 15:14 | 47.61167 | 8.35967 | 4365 ft | 146 kts | 137° |
| 2026-05-04 15:15 | 47.60425 | 8.36975 | 4303 ft | 145 kts | 137° |
| 2026-05-04 15:15 | 47.59676 | 8.37994 | 4233 ft | 145 kts | 137° |
| 2026-05-04 15:15 | 47.58929 | 8.39011 | 4148 ft | 147 kts | 137° |
| 2026-05-04 15:16 | 47.57421 | 8.41060 | 3827 ft | 147 kts | 139° |
| 2026-05-04 15:16 | 47.56674 | 8.42079 | 3647 ft | 145 kts | 138° |
| 2026-05-04 15:16 | 47.55178 | 8.44119 | 3279 ft | 144 kts | 138° |
| 2026-05-04 15:17 | 47.54445 | 8.45118 | 3081 ft | 144 kts | 140° |
| 2026-05-04 15:17 | 47.52929 | 8.47176 | 2725 ft | 152 kts | 139° |
| 2026-05-04 15:17 | 47.52155 | 8.48230 | 2485 ft | 145 kts | 139° |
| 2026-05-04 15:18 | 47.51419 | 8.49244 | 2307 ft | 145 kts | 139° |
| 2026-05-04 15:18 | 47.50862 | 8.49978 | 2130 ft | 143 kts | 139° |
| 2026-05-04 15:18 | 47.50102 | 8.50997 | 1894 ft | 143 kts | 137° |
| 2026-05-04 15:19 | 47.48649 | 8.53015 | 1557 ft | 145 kts | 138° |
| 2026-05-04 15:19 | 47.47907 | 8.54022 | 1409 ft | 142 kts | 137° |
| 2026-05-04 15:19 | 47.46871 | 8.55433 | 1386 ft | 35 kts | 137° |
| 2026-05-04 15:20 | 47.46746 | 8.55585 | 1393 ft | 23 kts | 146° |
| 2026-05-04 15:20 | 47.46691 | 8.55631 | 1402 ft | 8 kts | 155° |
| 2026-05-04 15:20 | 47.46626 | 8.55664 | 1394 ft | 11 kts | 165° |
| 2026-05-04 15:20 | 47.46570 | 8.55685 | 1396 ft | 7 kts | 165° |
| 2026-05-04 15:21 | 47.46519 | 8.55703 | 1397 ft | 6 kts | 167° |
| 2026-05-04 15:21 | 47.46468 | 8.55721 | 1397 ft | 9 kts | 166° |
| 2026-05-04 15:21 | 47.46349 | 8.55803 | 1402 ft | 10 kts | 137° |
| 2026-05-04 15:22 | 47.46293 | 8.55878 | 1405 ft | 11 kts | 137° |
| 2026-05-04 15:22 | 47.46235 | 8.55961 | 1408 ft | 12 kts | 136° |
| 2026-05-04 15:22 | 47.46071 | 8.55987 | 1407 ft | 14 kts | 187° |
| 2026-05-04 15:23 | 47.45965 | 8.55965 | 1410 ft | 17 kts | 195° |
| 2026-05-04 15:23 | 47.45865 | 8.55915 | 1413 ft | 11 kts | 199° |
| 2026-05-04 15:23 | 47.45843 | 8.55904 | 1411 ft | 0 kts | 199° |
| 2026-05-04 15:24 | 47.45836 | 8.55901 | 1410 ft | 0 kts | 198° |
| 2026-05-04 15:26 | 47.45788 | 8.55880 | 1411 ft | 9 kts | 192° |
| 2026-05-04 15:26 | 47.45710 | 8.55870 | 1410 ft | 12 kts | 185° |
| 2026-05-04 15:26 | 47.45565 | 8.55846 | 1408 ft | 13 kts | 187° |
| 2026-05-04 15:27 | 47.45507 | 8.55773 | 1412 ft | 13 kts | 268° |
| 2026-05-04 15:27 | 47.45521 | 8.55472 | 1405 ft | 17 kts | 249° |
| 2026-05-04 15:28 | 47.45317 | 8.55550 | 1406 ft | 17 kts | 156° |
| 2026-05-04 15:28 | 47.45269 | 8.55678 | 1406 ft | 15 kts | 95° |
| 2026-05-04 15:28 | 47.45266 | 8.55786 | 1406 ft | 4 kts | 64° |
| 2026-05-04 15:29 | 47.45297 | 8.55800 | 1406 ft | 6 kts | 7° |
| 2026-05-04 15:30 | 47.45338 | 8.55807 | 1406 ft | 0 kts | 6° |